sensor_id;sensor_type;location;lat;lon;timestamp;P1;durP1;ratioP1;P2;durP2;ratioP2
59555;SDS011;45374;52.746;6.304;2022-12-18T12:49:13;38.10;;;17.45;;
59555;SDS011;45374;52.746;6.304;2022-12-18T12:51:41;36.75;;;15.13;;
59555;SDS011;45374;52.746;6.304;2022-12-18T12:54:21;33.72;;;15.38;;
59555;SDS011;45374;52.746;6.304;2022-12-18T13:08:08;37.13;;;13.98;;
59555;SDS011;45374;52.746;6.304;2022-12-18T13:10:39;26.00;;;12.90;;
59555;SDS011;45374;52.746;6.304;2022-12-18T13:13:06;27.48;;;12.75;;
59555;SDS011;45374;52.746;6.304;2022-12-18T13:15:46;31.13;;;12.13;;
59555;SDS011;45374;52.746;6.304;2022-12-18T13:18:22;29.92;;;12.63;;
59555;SDS011;45374;52.746;6.304;2022-12-18T13:28:16;24.77;;;11.50;;
59555;SDS011;45374;52.746;6.304;2022-12-18T13:30:49;26.33;;;11.27;;
59555;SDS011;45374;52.746;6.304;2022-12-18T13:36:12;23.35;;;10.68;;
59555;SDS011;45374;52.746;6.304;2022-12-18T13:38:41;25.67;;;10.85;;
59555;SDS011;45374;52.746;6.304;2022-12-18T13:43:54;23.45;;;10.23;;
59555;SDS011;45374;52.746;6.304;2022-12-18T13:46:42;23.75;;;10.63;;
59555;SDS011;45374;52.746;6.304;2022-12-18T13:51:39;20.20;;;9.65;;
59555;SDS011;45374;52.746;6.304;2022-12-18T13:57:02;23.73;;;10.27;;
59555;SDS011;45374;52.746;6.304;2022-12-18T14:02:49;22.98;;;10.27;;
59555;SDS011;45374;52.746;6.304;2022-12-18T14:04:55;20.60;;;10.05;;
59555;SDS011;45374;52.746;6.304;2022-12-18T14:07:21;24.27;;;10.15;;
59555;SDS011;45374;52.746;6.304;2022-12-18T14:09:51;23.52;;;10.52;;
59555;SDS011;45374;52.746;6.304;2022-12-18T14:12:20;22.83;;;10.32;;
59555;SDS011;45374;52.746;6.304;2022-12-18T14:15:20;21.48;;;10.32;;
59555;SDS011;45374;52.746;6.304;2022-12-18T14:17:56;24.73;;;10.25;;
59555;SDS011;45374;52.746;6.304;2022-12-18T14:20:49;21.15;;;9.18;;
59555;SDS011;45374;52.746;6.304;2022-12-18T14:23:31;23.73;;;10.02;;
59555;SDS011;45374;52.746;6.304;2022-12-18T14:28:52;26.70;;;10.60;;
59555;SDS011;45374;52.746;6.304;2022-12-18T14:31:26;23.45;;;9.70;;
59555;SDS011;45374;52.746;6.304;2022-12-18T14:33:55;21.40;;;9.77;;
59555;SDS011;45374;52.746;6.304;2022-12-18T14:36:23;20.98;;;10.05;;
59555;SDS011;45374;52.746;6.304;2022-12-18T14:38:51;25.38;;;10.65;;
59555;SDS011;45374;52.746;6.304;2022-12-18T14:41:21;25.30;;;10.32;;
59555;SDS011;45374;52.746;6.304;2022-12-18T14:43:49;20.15;;;9.90;;
59555;SDS011;45374;52.746;6.304;2022-12-18T14:49:04;20.40;;;10.38;;
59555;SDS011;45374;52.746;6.304;2022-12-18T14:52:03;24.33;;;12.40;;
59555;SDS011;45374;52.746;6.304;2022-12-18T14:54:31;23.55;;;11.43;;
59555;SDS011;45374;52.746;6.304;2022-12-18T14:57:03;23.00;;;10.85;;
59555;SDS011;45374;52.746;6.304;2022-12-18T14:59:40;22.75;;;9.93;;
59555;SDS011;45374;52.746;6.304;2022-12-18T15:02:20;23.52;;;9.90;;
59555;SDS011;45374;52.746;6.304;2022-12-18T15:04:48;22.77;;;9.80;;
59555;SDS011;45374;52.746;6.304;2022-12-18T15:07:46;20.45;;;9.65;;
59555;SDS011;45374;52.746;6.304;2022-12-18T15:10:14;23.65;;;10.68;;
59555;SDS011;45374;52.746;6.304;2022-12-18T15:18:01;21.17;;;10.77;;
59555;SDS011;45374;52.746;6.304;2022-12-18T15:20:32;22.85;;;10.40;;
59555;SDS011;45374;52.746;6.304;2022-12-18T15:23:16;24.30;;;9.98;;
59555;SDS011;45374;52.746;6.304;2022-12-18T15:25:43;18.95;;;9.57;;
59555;SDS011;45374;52.746;6.304;2022-12-18T15:28:19;19.73;;;9.60;;
59555;SDS011;45374;52.746;6.304;2022-12-18T15:36:22;24.55;;;10.63;;
59555;SDS011;45374;52.746;6.304;2022-12-18T15:38:49;24.17;;;10.73;;
59555;SDS011;45374;52.746;6.304;2022-12-18T15:41:16;24.90;;;10.55;;
59555;SDS011;45374;52.746;6.304;2022-12-18T15:43:43;22.17;;;10.43;;
59555;SDS011;45374;52.746;6.304;2022-12-18T15:46:16;24.58;;;10.65;;
59555;SDS011;45374;52.746;6.304;2022-12-18T15:51:20;24.33;;;11.25;;
59555;SDS011;45374;52.746;6.304;2022-12-18T15:54:23;28.13;;;11.50;;
59555;SDS011;45374;52.746;6.304;2022-12-18T15:57:10;27.15;;;10.98;;
59555;SDS011;45374;52.746;6.304;2022-12-18T15:59:53;33.03;;;12.38;;
59555;SDS011;45374;52.746;6.304;2022-12-18T16:02:21;27.52;;;11.90;;
59555;SDS011;45374;52.746;6.304;2022-12-18T16:04:47;28.00;;;12.25;;
59555;SDS011;45374;52.746;6.304;2022-12-18T16:07:14;29.60;;;12.77;;
59555;SDS011;45374;52.746;6.304;2022-12-18T16:09:39;24.88;;;11.68;;
59555;SDS011;45374;52.746;6.304;2022-12-18T16:12:06;25.52;;;11.95;;
59555;SDS011;45374;52.746;6.304;2022-12-18T16:14:38;28.90;;;12.48;;
59555;SDS011;45374;52.746;6.304;2022-12-18T16:17:05;24.73;;;12.43;;
59555;SDS011;45374;52.746;6.304;2022-12-18T16:19:46;27.08;;;12.48;;
59555;SDS011;45374;52.746;6.304;2022-12-18T16:22:22;25.02;;;12.20;;
59555;SDS011;45374;52.746;6.304;2022-12-18T16:24:50;28.58;;;12.70;;
59555;SDS011;45374;52.746;6.304;2022-12-18T16:27:16;27.17;;;11.85;;
59555;SDS011;45374;52.746;6.304;2022-12-18T16:29:42;27.17;;;12.00;;
59555;SDS011;45374;52.746;6.304;2022-12-18T16:32:14;27.77;;;12.35;;
59555;SDS011;45374;52.746;6.304;2022-12-18T16:34:41;25.08;;;12.05;;
59555;SDS011;45374;52.746;6.304;2022-12-18T16:37:08;29.33;;;12.45;;
59555;SDS011;45374;52.746;6.304;2022-12-18T16:39:36;26.35;;;12.02;;
59555;SDS011;45374;52.746;6.304;2022-12-18T16:42:04;25.33;;;12.05;;
59555;SDS011;45374;52.746;6.304;2022-12-18T16:44:56;29.30;;;12.73;;
59555;SDS011;45374;52.746;6.304;2022-12-18T16:47:21;26.27;;;12.27;;
59555;SDS011;45374;52.746;6.304;2022-12-18T16:49:47;28.70;;;12.57;;
59555;SDS011;45374;52.746;6.304;2022-12-18T16:52:15;28.38;;;13.60;;
59555;SDS011;45374;52.746;6.304;2022-12-18T16:54:41;29.13;;;12.63;;
59555;SDS011;45374;52.746;6.304;2022-12-18T16:57:08;27.42;;;12.77;;
59555;SDS011;45374;52.746;6.304;2022-12-18T16:59:37;28.95;;;13.23;;
59555;SDS011;45374;52.746;6.304;2022-12-18T17:02:02;27.77;;;13.23;;
59555;SDS011;45374;52.746;6.304;2022-12-18T17:04:30;30.50;;;12.80;;
59555;SDS011;45374;52.746;6.304;2022-12-18T17:06:56;30.05;;;13.32;;
59555;SDS011;45374;52.746;6.304;2022-12-18T17:09:33;28.27;;;13.50;;
59555;SDS011;45374;52.746;6.304;2022-12-18T17:11:59;29.38;;;13.57;;
59555;SDS011;45374;52.746;6.304;2022-12-18T17:14:24;29.95;;;13.30;;
59555;SDS011;45374;52.746;6.304;2022-12-18T17:16:52;27.35;;;12.68;;
59555;SDS011;45374;52.746;6.304;2022-12-18T17:19:18;31.05;;;13.75;;
59555;SDS011;45374;52.746;6.304;2022-12-18T17:21:46;25.42;;;12.55;;
59555;SDS011;45374;52.746;6.304;2022-12-18T17:24:13;29.85;;;13.73;;
59555;SDS011;45374;52.746;6.304;2022-12-18T17:26:39;30.25;;;12.80;;
59555;SDS011;45374;52.746;6.304;2022-12-18T17:29:05;27.35;;;12.40;;
59555;SDS011;45374;52.746;6.304;2022-12-18T17:31:31;24.42;;;12.25;;
59555;SDS011;45374;52.746;6.304;2022-12-18T17:36:29;29.50;;;13.07;;
59555;SDS011;45374;52.746;6.304;2022-12-18T17:38:57;30.42;;;13.43;;
59555;SDS011;45374;52.746;6.304;2022-12-18T17:41:24;26.23;;;12.63;;
59555;SDS011;45374;52.746;6.304;2022-12-18T17:43:53;28.80;;;13.68;;
59555;SDS011;45374;52.746;6.304;2022-12-18T17:46:29;29.42;;;13.70;;
59555;SDS011;45374;52.746;6.304;2022-12-18T17:48:57;27.42;;;13.15;;
59555;SDS011;45374;52.746;6.304;2022-12-18T17:51:24;24.23;;;12.35;;
59555;SDS011;45374;52.746;6.304;2022-12-18T17:53:50;30.23;;;13.63;;
59555;SDS011;45374;52.746;6.304;2022-12-18T17:56:16;28.50;;;13.02;;
59555;SDS011;45374;52.746;6.304;2022-12-18T17:58:44;26.02;;;13.02;;
59555;SDS011;45374;52.746;6.304;2022-12-18T18:03:48;26.65;;;13.38;;
59555;SDS011;45374;52.746;6.304;2022-12-18T18:06:14;32.70;;;13.85;;
59555;SDS011;45374;52.746;6.304;2022-12-18T18:08:40;28.35;;;13.55;;
59555;SDS011;45374;52.746;6.304;2022-12-18T18:11:07;28.15;;;13.65;;
59555;SDS011;45374;52.746;6.304;2022-12-18T18:13:54;30.13;;;14.00;;
59555;SDS011;45374;52.746;6.304;2022-12-18T18:16:29;31.52;;;14.07;;
59555;SDS011;45374;52.746;6.304;2022-12-18T18:19:01;32.97;;;15.47;;
59555;SDS011;45374;52.746;6.304;2022-12-18T18:21:29;31.60;;;14.73;;
59555;SDS011;45374;52.746;6.304;2022-12-18T18:23:57;31.70;;;14.93;;
59555;SDS011;45374;52.746;6.304;2022-12-18T18:26:24;32.00;;;14.85;;
59555;SDS011;45374;52.746;6.304;2022-12-18T18:29:01;33.15;;;18.58;;
59555;SDS011;45374;52.746;6.304;2022-12-18T18:31:28;34.05;;;16.65;;
59555;SDS011;45374;52.746;6.304;2022-12-18T18:33:55;34.40;;;17.33;;
59555;SDS011;45374;52.746;6.304;2022-12-18T18:36:21;39.13;;;15.95;;
59555;SDS011;45374;52.746;6.304;2022-12-18T18:38:47;35.22;;;15.75;;
59555;SDS011;45374;52.746;6.304;2022-12-18T18:41:13;36.85;;;16.52;;
59555;SDS011;45374;52.746;6.304;2022-12-18T18:43:39;35.42;;;16.15;;
59555;SDS011;45374;52.746;6.304;2022-12-18T18:46:05;33.40;;;16.67;;
59555;SDS011;45374;52.746;6.304;2022-12-18T18:48:32;35.95;;;16.58;;
59555;SDS011;45374;52.746;6.304;2022-12-18T18:53:57;35.97;;;17.25;;
59555;SDS011;45374;52.746;6.304;2022-12-18T18:56:23;37.80;;;16.63;;
59555;SDS011;45374;52.746;6.304;2022-12-18T18:58:51;35.17;;;16.63;;
59555;SDS011;45374;52.746;6.304;2022-12-18T19:01:19;38.63;;;18.33;;
59555;SDS011;45374;52.746;6.304;2022-12-18T19:03:46;35.92;;;16.77;;
59555;SDS011;45374;52.746;6.304;2022-12-18T19:06:13;34.67;;;17.73;;
59555;SDS011;45374;52.746;6.304;2022-12-18T19:08:41;37.15;;;17.58;;
59555;SDS011;45374;52.746;6.304;2022-12-18T19:11:08;37.17;;;16.88;;
59555;SDS011;45374;52.746;6.304;2022-12-18T19:13:53;40.20;;;17.58;;
59555;SDS011;45374;52.746;6.304;2022-12-18T19:16:20;41.92;;;18.35;;
59555;SDS011;45374;52.746;6.304;2022-12-18T19:18:58;44.50;;;18.55;;
59555;SDS011;45374;52.746;6.304;2022-12-18T19:21:23;38.95;;;18.92;;
59555;SDS011;45374;52.746;6.304;2022-12-18T19:23:49;41.88;;;20.17;;
59555;SDS011;45374;52.746;6.304;2022-12-18T19:26:16;42.92;;;19.17;;
59555;SDS011;45374;52.746;6.304;2022-12-18T19:28:42;44.15;;;20.38;;
59555;SDS011;45374;52.746;6.304;2022-12-18T19:31:09;41.17;;;19.33;;
59555;SDS011;45374;52.746;6.304;2022-12-18T19:33:37;42.67;;;20.95;;
59555;SDS011;45374;52.746;6.304;2022-12-18T19:36:24;45.17;;;20.00;;
59555;SDS011;45374;52.746;6.304;2022-12-18T19:38:52;48.53;;;22.65;;
59555;SDS011;45374;52.746;6.304;2022-12-18T19:41:19;51.85;;;21.65;;
59555;SDS011;45374;52.746;6.304;2022-12-18T19:43:57;45.83;;;21.75;;
59555;SDS011;45374;52.746;6.304;2022-12-18T19:46:23;47.13;;;21.63;;
59555;SDS011;45374;52.746;6.304;2022-12-18T19:48:49;53.13;;;22.25;;
59555;SDS011;45374;52.746;6.304;2022-12-18T19:51:16;48.08;;;21.98;;
59555;SDS011;45374;52.746;6.304;2022-12-18T19:53:50;51.42;;;21.38;;
59555;SDS011;45374;52.746;6.304;2022-12-18T19:56:17;53.22;;;22.23;;
59555;SDS011;45374;52.746;6.304;2022-12-18T19:58:44;58.92;;;23.20;;
59555;SDS011;45374;52.746;6.304;2022-12-18T20:01:11;55.65;;;22.95;;
59555;SDS011;45374;52.746;6.304;2022-12-18T20:03:37;51.72;;;23.20;;
59555;SDS011;45374;52.746;6.304;2022-12-18T20:06:11;56.67;;;23.67;;
59555;SDS011;45374;52.746;6.304;2022-12-18T20:08:51;57.80;;;23.17;;
59555;SDS011;45374;52.746;6.304;2022-12-18T20:11:17;58.13;;;24.40;;
59555;SDS011;45374;52.746;6.304;2022-12-18T20:13:43;61.65;;;24.35;;
59555;SDS011;45374;52.746;6.304;2022-12-18T20:16:09;59.03;;;23.40;;
59555;SDS011;45374;52.746;6.304;2022-12-18T20:18:35;60.78;;;25.02;;
59555;SDS011;45374;52.746;6.304;2022-12-18T20:21:00;58.22;;;25.42;;
59555;SDS011;45374;52.746;6.304;2022-12-18T20:23:26;60.88;;;24.92;;
59555;SDS011;45374;52.746;6.304;2022-12-18T20:25:52;57.90;;;24.25;;
59555;SDS011;45374;52.746;6.304;2022-12-18T20:28:19;58.67;;;24.63;;
59555;SDS011;45374;52.746;6.304;2022-12-18T20:30:45;59.25;;;24.85;;
59555;SDS011;45374;52.746;6.304;2022-12-18T20:35:47;57.58;;;24.42;;
59555;SDS011;45374;52.746;6.304;2022-12-18T20:38:12;61.60;;;26.02;;
59555;SDS011;45374;52.746;6.304;2022-12-18T20:40:39;64.05;;;26.73;;
59555;SDS011;45374;52.746;6.304;2022-12-18T20:43:06;65.13;;;25.98;;
59555;SDS011;45374;52.746;6.304;2022-12-18T20:45:32;64.30;;;27.10;;
59555;SDS011;45374;52.746;6.304;2022-12-18T20:47:57;67.55;;;26.83;;
59555;SDS011;45374;52.746;6.304;2022-12-18T20:50:24;64.80;;;26.55;;
59555;SDS011;45374;52.746;6.304;2022-12-18T20:52:50;66.40;;;26.77;;
59555;SDS011;45374;52.746;6.304;2022-12-18T20:55:16;62.97;;;26.38;;
59555;SDS011;45374;52.746;6.304;2022-12-18T20:57:42;64.57;;;26.85;;
59555;SDS011;45374;52.746;6.304;2022-12-18T21:02:39;64.00;;;26.58;;
59555;SDS011;45374;52.746;6.304;2022-12-18T21:05:05;69.03;;;28.45;;
59555;SDS011;45374;52.746;6.304;2022-12-18T21:07:31;63.30;;;25.23;;
59555;SDS011;45374;52.746;6.304;2022-12-18T21:09:57;69.97;;;28.70;;
59555;SDS011;45374;52.746;6.304;2022-12-18T21:12:22;73.30;;;28.85;;
59555;SDS011;45374;52.746;6.304;2022-12-18T21:15:03;64.32;;;27.50;;
59555;SDS011;45374;52.746;6.304;2022-12-18T21:17:31;68.68;;;27.52;;
59555;SDS011;45374;52.746;6.304;2022-12-18T21:19:56;66.13;;;27.70;;
59555;SDS011;45374;52.746;6.304;2022-12-18T21:22:23;69.35;;;27.60;;
59555;SDS011;45374;52.746;6.304;2022-12-18T21:24:48;65.82;;;26.77;;
59555;SDS011;45374;52.746;6.304;2022-12-18T21:29:47;69.15;;;27.23;;
59555;SDS011;45374;52.746;6.304;2022-12-18T21:32:12;70.82;;;27.00;;
59555;SDS011;45374;52.746;6.304;2022-12-18T21:34:38;76.25;;;28.33;;
59555;SDS011;45374;52.746;6.304;2022-12-18T21:37:04;72.53;;;28.45;;
59555;SDS011;45374;52.746;6.304;2022-12-18T21:39:30;74.43;;;29.27;;
59555;SDS011;45374;52.746;6.304;2022-12-18T21:41:56;72.30;;;28.85;;
59555;SDS011;45374;52.746;6.304;2022-12-18T21:44:42;68.82;;;27.40;;
59555;SDS011;45374;52.746;6.304;2022-12-18T21:47:11;74.25;;;28.58;;
59555;SDS011;45374;52.746;6.304;2022-12-18T21:49:37;80.53;;;30.05;;
59555;SDS011;45374;52.746;6.304;2022-12-18T21:52:03;75.55;;;29.45;;
59555;SDS011;45374;52.746;6.304;2022-12-18T21:54:40;75.43;;;28.92;;
59555;SDS011;45374;52.746;6.304;2022-12-18T21:57:06;81.75;;;30.83;;
59555;SDS011;45374;52.746;6.304;2022-12-18T21:59:36;74.05;;;30.17;;
59555;SDS011;45374;52.746;6.304;2022-12-18T22:02:04;79.22;;;31.73;;
59555;SDS011;45374;52.746;6.304;2022-12-18T22:04:39;79.60;;;30.63;;
59555;SDS011;45374;52.746;6.304;2022-12-18T22:07:05;80.38;;;30.05;;
59555;SDS011;45374;52.746;6.304;2022-12-18T22:09:31;82.90;;;31.00;;
59555;SDS011;45374;52.746;6.304;2022-12-18T22:11:57;74.40;;;31.13;;
59555;SDS011;45374;52.746;6.304;2022-12-18T22:14:22;80.05;;;30.45;;
59555;SDS011;45374;52.746;6.304;2022-12-18T22:16:48;83.57;;;32.08;;
59555;SDS011;45374;52.746;6.304;2022-12-18T22:19:22;77.82;;;31.42;;
59555;SDS011;45374;52.746;6.304;2022-12-18T22:21:51;84.93;;;30.35;;
59555;SDS011;45374;52.746;6.304;2022-12-18T22:24:18;80.47;;;30.55;;
59555;SDS011;45374;52.746;6.304;2022-12-18T22:26:46;88.63;;;33.42;;
59555;SDS011;45374;52.746;6.304;2022-12-18T22:29:17;88.45;;;32.33;;
59555;SDS011;45374;52.746;6.304;2022-12-18T22:32:03;83.80;;;32.55;;
59555;SDS011;45374;52.746;6.304;2022-12-18T22:34:29;76.75;;;30.55;;
59555;SDS011;45374;52.746;6.304;2022-12-18T22:36:55;86.88;;;30.67;;
59555;SDS011;45374;52.746;6.304;2022-12-18T22:39:22;83.22;;;30.30;;
59555;SDS011;45374;52.746;6.304;2022-12-18T22:41:49;81.20;;;31.58;;
59555;SDS011;45374;52.746;6.304;2022-12-18T22:44:26;88.43;;;30.88;;
59555;SDS011;45374;52.746;6.304;2022-12-18T22:46:53;79.97;;;31.17;;
59555;SDS011;45374;52.746;6.304;2022-12-18T22:49:20;87.85;;;32.47;;
59555;SDS011;45374;52.746;6.304;2022-12-18T22:51:47;91.40;;;32.63;;
59555;SDS011;45374;52.746;6.304;2022-12-18T22:54:14;85.43;;;31.80;;
59555;SDS011;45374;52.746;6.304;2022-12-18T22:56:39;88.10;;;32.22;;
59555;SDS011;45374;52.746;6.304;2022-12-18T22:59:06;88.65;;;31.77;;
59555;SDS011;45374;52.746;6.304;2022-12-18T23:01:33;86.15;;;32.30;;
59555;SDS011;45374;52.746;6.304;2022-12-18T23:03:59;86.63;;;32.85;;
59555;SDS011;45374;52.746;6.304;2022-12-18T23:06:25;87.40;;;31.80;;
59555;SDS011;45374;52.746;6.304;2022-12-18T23:09:03;85.00;;;32.17;;
59555;SDS011;45374;52.746;6.304;2022-12-18T23:11:29;85.15;;;31.05;;
59555;SDS011;45374;52.746;6.304;2022-12-18T23:13:54;92.10;;;32.30;;
59555;SDS011;45374;52.746;6.304;2022-12-18T23:16:20;91.50;;;34.35;;
59555;SDS011;45374;52.746;6.304;2022-12-18T23:18:46;91.80;;;34.45;;
59555;SDS011;45374;52.746;6.304;2022-12-18T23:21:18;93.43;;;33.80;;
59555;SDS011;45374;52.746;6.304;2022-12-18T23:23:45;86.45;;;31.80;;
59555;SDS011;45374;52.746;6.304;2022-12-18T23:26:11;91.80;;;32.97;;
59555;SDS011;45374;52.746;6.304;2022-12-18T23:28:39;96.82;;;33.60;;
59555;SDS011;45374;52.746;6.304;2022-12-18T23:31:06;92.30;;;34.03;;
59555;SDS011;45374;52.746;6.304;2022-12-18T23:33:50;93.65;;;32.70;;
59555;SDS011;45374;52.746;6.304;2022-12-18T23:36:17;96.97;;;35.50;;
59555;SDS011;45374;52.746;6.304;2022-12-18T23:38:46;89.70;;;33.35;;
59555;SDS011;45374;52.746;6.304;2022-12-18T23:41:13;89.47;;;33.67;;
59555;SDS011;45374;52.746;6.304;2022-12-18T23:43:40;93.07;;;34.55;;
59555;SDS011;45374;52.746;6.304;2022-12-18T23:46:10;95.57;;;33.00;;
59555;SDS011;45374;52.746;6.304;2022-12-18T23:48:42;91.75;;;32.75;;
59555;SDS011;45374;52.746;6.304;2022-12-18T23:51:11;92.65;;;33.10;;
59555;SDS011;45374;52.746;6.304;2022-12-18T23:53:38;94.35;;;34.78;;
59555;SDS011;45374;52.746;6.304;2022-12-18T23:56:03;98.13;;;33.60;;
